METAR AND TAF INFORMATION
METAR FOR EDDS
ADDS - METARS form results

(0734 UTC 23 October 2018)
Data provider http://aviationweather.gov/metar/data/
 
METAR text: EDDS 230720Z 26007KT 220V300 9999 SCT010 09/07 Q1029 NOSIG
Conditions at: EDDS (STUTTGART/ECHTER, DE) observed 0720 UTC 23 October 2018
Temperature: 9.0°C (48°F)
Dewpoint: 7.0°C (45°F) [RH = 87%]
Pressure (altimeter): 30.38 inches Hg (1029.0 mb)
Winds: from the W (260 degrees) at 8 MPH (7 knots; 3.6 m/s)
Visibility: 6 or more miles (10+ km)
Ceiling: at least 12,000 feet AGL
Clouds: scattered clouds at 1000 feet AGL
Weather: no significant weather observed at this time

METAR text: EDDS 230650Z 25005KT 210V280 9999 SCT013 08/07 Q1029 NOSIG
Conditions at: EDDS (STUTTGART/ECHTER, DE) observed 0650 UTC 23 October 2018
Temperature: 8.0°C (46°F)
Dewpoint: 7.0°C (45°F) [RH = 93%]
Pressure (altimeter): 30.38 inches Hg (1029.0 mb)
Winds: from the WSW (250 degrees) at 6 MPH (5 knots; 2.6 m/s)
Visibility: 6 or more miles (10+ km)
Ceiling: at least 12,000 feet AGL
Clouds: scattered clouds at 1300 feet AGL
Weather: no significant weather observed at this time

Forecast for: EDDS (STUTTGART/ECHTER, DE)
Text: TAF EDDS 230500Z 2306/2406 25004KT 9999 SCT020
Forecast period: 0600 to 0900 UTC 23 October 2018
Forecast type: FROM: standard forecast or significant change
Winds: from the WSW (250 degrees) at 5 MPH (4 knots; 2.1 m/s)
Visibility: 6 or more miles 10+ km)
Ceiling: at least 12,000 feet AGL
Clouds: scattered clouds at 2000 feet AGL
Weather: no significant weather forecast for this period
Text: BECMG 2309/2312 25009KT
Forecast period: 0900 UTC 23 October 2018 to 0600 UTC 24 October 2018
Forecast type: BECOMING: Conditions expected to become as follows by 1200 UTC 23 October 2018
Winds: from the WSW (250 degrees) at 10 MPH (9 knots; 4.6 m/s)
Visibility: 6 or more miles 10+ km)
Ceiling: at least 12,000 feet AGL
Clouds: scattered clouds at 2000 feet AGL
Weather: no significant weather forecast for this period

 AIRPORT MAP

 RUNWAY INFORMATION
Runway 07 Runway length 10974 ft Runway width 148 ft
Runway elevation 1267 ft Runway displaced threshold 984 ft Runway heading 74
Runway 25 Runway length 10974 ft Runway width 148 ft
Runway elevation 1181 ft Runway displaced threshold 0 ft Runway heading 254

 AIRPORT FREQUENCIES
Type ATIS Name ATIS Frequency 126.125 MHZ
Type CLD Name CLNC DEL Frequency 121.9 MHZ
Type DIR Name DIR Frequency 119.85 MHZ
Type GND Name GND Frequency 118.6 MHZ
Type INFO Name LANGEN INF Frequency 128.95 MHZ
Type MISC Name DEICING Frequency 136.825 MHZ
Type PTD Name BASE OPS P Frequency 31.8 MHZ
Type RDR Name LANGEN RAD Frequency 119.2 MHZ
Type RMP Name APRON Frequency 121.7 MHZ
Type TWR Name TWR Frequency 118.8 MHZ

 AIRPORT NEAR NAVIGATION AIDS
Type VOR-DME Name Luburg Frequency 109200 KHZ
Type NDB Name Stuttgart Frequency 306 KHZ
Type DME Name Stuttgart Frequency 115450 KHZ
Type NDB Name Stuttgart Frequency 384 KHZ



Powered by Virtual Airlines Manager [v2.6.2]